sensor_id;sensor_type;location;lat;lon;timestamp;pressure;altitude;pressure_sealevel;temperature;humidity
85159;BME280;75525;50.718;10.600;2024-01-30T00:00:36;97248.09;;;-1.07;89.34
85159;BME280;75525;50.718;10.600;2024-01-30T00:01:36;97251.75;;;-1.08;89.63
85159;BME280;75525;50.718;10.600;2024-01-30T00:02:36;97233.41;;;-1.19;90.14
85159;BME280;75525;50.718;10.600;2024-01-30T00:03:37;97236.94;;;-1.11;89.51
85159;BME280;75525;50.718;10.600;2024-01-30T00:04:37;97245.75;;;-1.10;89.34
85159;BME280;75525;50.718;10.600;2024-01-30T00:05:38;97236.75;;;-1.17;89.53
85159;BME280;75525;50.718;10.600;2024-01-30T00:06:38;97241.44;;;-1.11;89.20
85159;BME280;75525;50.718;10.600;2024-01-30T00:07:39;97248.28;;;-1.09;89.39
85159;BME280;75525;50.718;10.600;2024-01-30T00:08:39;97225.44;;;-1.19;89.65
85159;BME280;75525;50.718;10.600;2024-01-30T00:09:39;97230.75;;;-1.19;89.58
85159;BME280;75525;50.718;10.600;2024-01-30T00:10:40;97245.09;;;-1.12;89.36
85159;BME280;75525;50.718;10.600;2024-01-30T00:11:40;97238.94;;;-1.13;89.61
85159;BME280;75525;50.718;10.600;2024-01-30T00:12:41;97234.59;;;-1.14;90.54
85159;BME280;75525;50.718;10.600;2024-01-30T00:13:41;97236.59;;;-1.16;90.26
85159;BME280;75525;50.718;10.600;2024-01-30T00:14:42;97231.03;;;-1.22;90.62
85159;BME280;75525;50.718;10.600;2024-01-30T00:15:46;97235.38;;;-1.21;91.07
85159;BME280;75525;50.718;10.600;2024-01-30T00:16:47;97240.75;;;-1.13;90.94
85159;BME280;75525;50.718;10.600;2024-01-30T00:17:47;97232.28;;;-1.17;90.66
85159;BME280;75525;50.718;10.600;2024-01-30T00:18:48;97224.25;;;-1.25;90.42
85159;BME280;75525;50.718;10.600;2024-01-30T00:19:48;97229.59;;;-1.17;90.18
85159;BME280;75525;50.718;10.600;2024-01-30T00:20:49;97241.72;;;-1.14;90.39
85159;BME280;75525;50.718;10.600;2024-01-30T00:21:49;97223.91;;;-1.22;90.12
85159;BME280;75525;50.718;10.600;2024-01-30T00:22:50;97238.09;;;-1.13;89.79
85159;BME280;75525;50.718;10.600;2024-01-30T00:23:50;97230.13;;;-1.13;89.64
85159;BME280;75525;50.718;10.600;2024-01-30T00:24:51;97235.28;;;-1.12;90.14
85159;BME280;75525;50.718;10.600;2024-01-30T00:25:51;97222.59;;;-1.18;90.16
85159;BME280;75525;50.718;10.600;2024-01-30T00:26:51;97235.66;;;-1.07;90.21
85159;BME280;75525;50.718;10.600;2024-01-30T00:27:52;97240.13;;;-1.07;90.07
85159;BME280;75525;50.718;10.600;2024-01-30T00:28:53;97237.47;;;-1.07;90.48
85159;BME280;75525;50.718;10.600;2024-01-30T00:29:53;97218.16;;;-1.17;90.11
85159;BME280;75525;50.718;10.600;2024-01-30T00:30:53;97227.16;;;-1.10;90.39
85159;BME280;75525;50.718;10.600;2024-01-30T00:31:54;97236.19;;;-1.03;90.83
85159;BME280;75525;50.718;10.600;2024-01-30T00:32:54;97227.69;;;-1.07;90.75
85159;BME280;75525;50.718;10.600;2024-01-30T00:33:55;97230.84;;;-1.03;90.53
85159;BME280;75525;50.718;10.600;2024-01-30T00:34:56;97235.50;;;-1.05;90.35
85159;BME280;75525;50.718;10.600;2024-01-30T00:35:56;97231.84;;;-1.04;90.72
85159;BME280;75525;50.718;10.600;2024-01-30T00:36:56;97227.53;;;-1.05;91.11
85159;BME280;75525;50.718;10.600;2024-01-30T00:37:57;97228.19;;;-1.03;91.26
85159;BME280;75525;50.718;10.600;2024-01-30T00:38:57;97226.53;;;-1.04;90.96
85159;BME280;75525;50.718;10.600;2024-01-30T00:39:58;97233.50;;;-1.03;90.96
85159;BME280;75525;50.718;10.600;2024-01-30T00:40:58;97228.91;;;-1.01;90.62
85159;BME280;75525;50.718;10.600;2024-01-30T00:41:58;97231.22;;;-0.98;91.26
85159;BME280;75525;50.718;10.600;2024-01-30T00:42:59;97225.91;;;-0.98;90.77
85159;BME280;75525;50.718;10.600;2024-01-30T00:44:01;97222.28;;;-0.97;90.17
85159;BME280;75525;50.718;10.600;2024-01-30T00:45:01;97227.59;;;-0.97;90.16
85159;BME280;75525;50.718;10.600;2024-01-30T00:46:02;97224.94;;;-0.97;89.92
85159;BME280;75525;50.718;10.600;2024-01-30T00:47:03;97222.28;;;-0.97;90.32
85159;BME280;75525;50.718;10.600;2024-01-30T00:48:04;97227.59;;;-0.97;90.31
85159;BME280;75525;50.718;10.600;2024-01-30T00:49:04;97218.09;;;-1.00;90.08
85159;BME280;75525;50.718;10.600;2024-01-30T00:50:05;97179.91;;;-1.25;90.00
85159;BME280;75525;50.718;10.600;2024-01-30T00:51:06;97222.59;;;-1.00;90.05
85159;BME280;75525;50.718;10.600;2024-01-30T00:52:06;97218.72;;;-1.06;89.99
85159;BME280;75525;50.718;10.600;2024-01-30T00:53:07;97224.41;;;-1.01;89.96
85159;BME280;75525;50.718;10.600;2024-01-30T00:54:07;97214.91;;;-1.03;90.38
85159;BME280;75525;50.718;10.600;2024-01-30T00:55:08;97212.56;;;-1.06;90.82
85159;BME280;75525;50.718;10.600;2024-01-30T00:56:08;97215.91;;;-1.04;90.75
85159;BME280;75525;50.718;10.600;2024-01-30T00:57:09;97217.03;;;-1.07;90.62
85159;BME280;75525;50.718;10.600;2024-01-30T00:58:09;97214.69;;;-1.10;90.47
85159;BME280;75525;50.718;10.600;2024-01-30T00:59:11;97204.53;;;-1.14;91.49
85159;BME280;75525;50.718;10.600;2024-01-30T01:00:11;97215.56;;;-1.09;91.64
85159;BME280;75525;50.718;10.600;2024-01-30T01:01:12;97214.84;;;-1.11;91.12
85159;BME280;75525;50.718;10.600;2024-01-30T01:02:13;97210.06;;;-1.08;90.76
85159;BME280;75525;50.718;10.600;2024-01-30T01:03:15;97218.22;;;-1.09;90.92
85159;BME280;75525;50.718;10.600;2024-01-30T01:04:16;97208.41;;;-1.09;90.67
85159;BME280;75525;50.718;10.600;2024-01-30T01:05:17;97210.25;;;-1.09;90.58
85159;BME280;75525;50.718;10.600;2024-01-30T01:06:18;97213.19;;;-1.12;90.69
85159;BME280;75525;50.718;10.600;2024-01-30T01:07:19;97217.88;;;-1.06;90.95
85159;BME280;75525;50.718;10.600;2024-01-30T01:08:19;97209.91;;;-1.06;91.06
85159;BME280;75525;50.718;10.600;2024-01-30T01:09:20;97212.91;;;-1.09;91.09
85159;BME280;75525;50.718;10.600;2024-01-30T01:10:20;97205.06;;;-1.11;90.76
85159;BME280;75525;50.718;10.600;2024-01-30T01:11:21;97211.38;;;-1.12;90.14
85159;BME280;75525;50.718;10.600;2024-01-30T01:12:22;97207.34;;;-1.16;90.49
85159;BME280;75525;50.718;10.600;2024-01-30T01:13:22;97194.84;;;-1.23;90.54
85159;BME280;75525;50.718;10.600;2024-01-30T01:14:23;97202.22;;;-1.17;90.66
85159;BME280;75525;50.718;10.600;2024-01-30T01:15:23;97187.34;;;-1.28;90.21
85159;BME280;75525;50.718;10.600;2024-01-30T01:16:23;97207.00;;;-1.21;90.78
85159;BME280;75525;50.718;10.600;2024-01-30T01:17:24;97201.16;;;-1.25;90.47
85159;BME280;75525;50.718;10.600;2024-01-30T01:18:24;97206.31;;;-1.23;90.72
85159;BME280;75525;50.718;10.600;2024-01-30T01:19:25;97201.00;;;-1.23;91.00
85159;BME280;75525;50.718;10.600;2024-01-30T01:20:25;97205.47;;;-1.23;90.91
85159;BME280;75525;50.718;10.600;2024-01-30T01:21:26;97194.84;;;-1.23;90.90
85159;BME280;75525;50.718;10.600;2024-01-30T01:22:26;97196.31;;;-1.29;90.88
85159;BME280;75525;50.718;10.600;2024-01-30T01:23:27;97202.81;;;-1.23;90.94
85159;BME280;75525;50.718;10.600;2024-01-30T01:24:27;97195.47;;;-1.30;90.79
85159;BME280;75525;50.718;10.600;2024-01-30T01:25:28;97200.63;;;-1.28;90.45
85159;BME280;75525;50.718;10.600;2024-01-30T01:26:28;97198.50;;;-1.25;90.63
85159;BME280;75525;50.718;10.600;2024-01-30T01:27:29;97194.50;;;-1.29;90.42
85159;BME280;75525;50.718;10.600;2024-01-30T01:28:29;97195.16;;;-1.27;90.75
85159;BME280;75525;50.718;10.600;2024-01-30T01:29:30;97203.13;;;-1.27;90.29
85159;BME280;75525;50.718;10.600;2024-01-30T01:30:30;97196.16;;;-1.28;91.03
85159;BME280;75525;50.718;10.600;2024-01-30T01:31:30;97200.47;;;-1.27;90.53
85159;BME280;75525;50.718;10.600;2024-01-30T01:32:31;97198.81;;;-1.28;90.56
85159;BME280;75525;50.718;10.600;2024-01-30T01:33:34;97200.78;;;-1.30;90.58
85159;BME280;75525;50.718;10.600;2024-01-30T01:34:37;97182.44;;;-1.41;90.58
85159;BME280;75525;50.718;10.600;2024-01-30T01:35:37;97194.63;;;-1.30;90.42
85159;BME280;75525;50.718;10.600;2024-01-30T01:36:37;97195.78;;;-1.33;90.71
85159;BME280;75525;50.718;10.600;2024-01-30T01:37:38;97195.78;;;-1.33;90.85
85159;BME280;75525;50.718;10.600;2024-01-30T01:38:38;97197.59;;;-1.33;90.75
85159;BME280;75525;50.718;10.600;2024-01-30T01:39:39;97171.59;;;-1.47;90.96
85159;BME280;75525;50.718;10.600;2024-01-30T01:40:39;97180.75;;;-1.42;91.44
85159;BME280;75525;50.718;10.600;2024-01-30T01:41:41;97195.91;;;-1.34;91.31
85159;BME280;75525;50.718;10.600;2024-01-30T01:42:42;97190.06;;;-1.38;90.90
85159;BME280;75525;50.718;10.600;2024-01-30T01:43:42;97162.56;;;-1.55;91.54
85159;BME280;75525;50.718;10.600;2024-01-30T01:44:42;97192.44;;;-1.35;91.08
85159;BME280;75525;50.718;10.600;2024-01-30T01:45:43;97194.44;;;-1.37;91.67
85159;BME280;75525;50.718;10.600;2024-01-30T01:46:44;97194.44;;;-1.37;91.74
85159;BME280;75525;50.718;10.600;2024-01-30T01:47:47;97196.25;;;-1.37;91.29
85159;BME280;75525;50.718;10.600;2024-01-30T01:48:48;97172.41;;;-1.47;90.91
85159;BME280;75525;50.718;10.600;2024-01-30T01:49:49;97194.72;;;-1.40;91.13
85159;BME280;75525;50.718;10.600;2024-01-30T01:50:49;97191.78;;;-1.37;91.54
85159;BME280;75525;50.718;10.600;2024-01-30T01:51:51;97190.94;;;-1.37;91.12
85159;BME280;75525;50.718;10.600;2024-01-30T01:52:54;97177.44;;;-1.44;91.53
85159;BME280;75525;50.718;10.600;2024-01-30T01:53:55;97193.25;;;-1.34;91.87
85159;BME280;75525;50.718;10.600;2024-01-30T01:54:56;97194.09;;;-1.34;91.29
85159;BME280;75525;50.718;10.600;2024-01-30T01:55:56;97189.13;;;-1.37;91.02
85159;BME280;75525;50.718;10.600;2024-01-30T01:56:57;97195.09;;;-1.35;91.61
85159;BME280;75525;50.718;10.600;2024-01-30T01:57:58;97175.78;;;-1.45;91.38
85159;BME280;75525;50.718;10.600;2024-01-30T01:59:05;97187.13;;;-1.35;91.15
85159;BME280;75525;50.718;10.600;2024-01-30T02:00:08;97190.78;;;-1.36;91.20
85159;BME280;75525;50.718;10.600;2024-01-30T02:01:11;97170.75;;;-1.48;91.09
85159;BME280;75525;50.718;10.600;2024-01-30T02:02:14;97198.91;;;-1.37;90.90
85159;BME280;75525;50.718;10.600;2024-01-30T02:03:17;97192.72;;;-1.38;90.56
85159;BME280;75525;50.718;10.600;2024-01-30T02:04:19;97191.06;;;-1.39;91.05
85159;BME280;75525;50.718;10.600;2024-01-30T02:05:19;97184.09;;;-1.40;90.58
85159;BME280;75525;50.718;10.600;2024-01-30T02:06:21;97188.41;;;-1.39;90.70
85159;BME280;75525;50.718;10.600;2024-01-30T02:07:21;97184.94;;;-1.39;90.47
85159;BME280;75525;50.718;10.600;2024-01-30T02:08:23;97175.25;;;-1.48;90.58
85159;BME280;75525;50.718;10.600;2024-01-30T02:09:24;97188.41;;;-1.39;91.19
85159;BME280;75525;50.718;10.600;2024-01-30T02:10:24;97182.28;;;-1.39;91.75
85159;BME280;75525;50.718;10.600;2024-01-30T02:11:25;97170.75;;;-1.48;91.32
85159;BME280;75525;50.718;10.600;2024-01-30T02:12:25;97186.59;;;-1.38;91.08
85159;BME280;75525;50.718;10.600;2024-01-30T02:13:26;97180.75;;;-1.42;90.97
85159;BME280;75525;50.718;10.600;2024-01-30T02:14:26;97181.28;;;-1.38;90.73
85159;BME280;75525;50.718;10.600;2024-01-30T02:15:27;97184.94;;;-1.39;90.55
85159;BME280;75525;50.718;10.600;2024-01-30T02:16:27;97173.25;;;-1.46;90.34
85159;BME280;75525;50.718;10.600;2024-01-30T02:17:28;97178.97;;;-1.41;90.50
85159;BME280;75525;50.718;10.600;2024-01-30T02:18:28;97187.41;;;-1.38;90.70
85159;BME280;75525;50.718;10.600;2024-01-30T02:19:29;97186.59;;;-1.38;90.42
85159;BME280;75525;50.718;10.600;2024-01-30T02:20:30;97181.44;;;-1.40;90.80
85159;BME280;75525;50.718;10.600;2024-01-30T02:21:32;97182.09;;;-1.38;90.74
85159;BME280;75525;50.718;10.600;2024-01-30T02:22:33;97186.47;;;-1.37;90.89
85159;BME280;75525;50.718;10.600;2024-01-30T02:23:35;97190.06;;;-1.38;90.83
85159;BME280;75525;50.718;10.600;2024-01-30T02:24:35;97180.75;;;-1.42;90.55
85159;BME280;75525;50.718;10.600;2024-01-30T02:25:39;97183.41;;;-1.42;91.06
85159;BME280;75525;50.718;10.600;2024-01-30T02:26:44;97170.59;;;-1.46;90.38
85159;BME280;75525;50.718;10.600;2024-01-30T02:27:44;97175.78;;;-1.45;90.54
85159;BME280;75525;50.718;10.600;2024-01-30T02:28:45;97178.44;;;-1.45;90.86
85159;BME280;75525;50.718;10.600;2024-01-30T02:29:45;97181.09;;;-1.45;91.51
85159;BME280;75525;50.718;10.600;2024-01-30T02:30:46;97177.72;;;-1.47;91.28
85159;BME280;75525;50.718;10.600;2024-01-30T02:31:47;97169.09;;;-1.49;91.81
85159;BME280;75525;50.718;10.600;2024-01-30T02:32:47;97177.53;;;-1.54;91.54
85159;BME280;75525;50.718;10.600;2024-01-30T02:33:48;97181.97;;;-1.54;91.52
85159;BME280;75525;50.718;10.600;2024-01-30T02:34:48;97179.31;;;-1.54;92.32
85159;BME280;75525;50.718;10.600;2024-01-30T02:35:48;97176.16;;;-1.58;92.07
85159;BME280;75525;50.718;10.600;2024-01-30T02:36:49;97184.28;;;-1.59;92.29
85159;BME280;75525;50.718;10.600;2024-01-30T02:37:49;97189.59;;;-1.59;92.10
85159;BME280;75525;50.718;10.600;2024-01-30T02:38:50;97174.56;;;-1.68;91.88
85159;BME280;75525;50.718;10.600;2024-01-30T02:39:50;97188.22;;;-1.63;92.33
85159;BME280;75525;50.718;10.600;2024-01-30T02:40:50;97187.38;;;-1.64;92.02
85159;BME280;75525;50.718;10.600;2024-01-30T02:41:51;97179.88;;;-1.68;92.25
85159;BME280;75525;50.718;10.600;2024-01-30T02:42:51;97190.22;;;-1.65;91.92
85159;BME280;75525;50.718;10.600;2024-01-30T02:43:52;97190.22;;;-1.65;91.68
85159;BME280;75525;50.718;10.600;2024-01-30T02:44:52;97182.38;;;-1.67;91.08
85159;BME280;75525;50.718;10.600;2024-01-30T02:45:53;97184.19;;;-1.67;91.53
85159;BME280;75525;50.718;10.600;2024-01-30T02:46:53;97176.22;;;-1.67;91.01
85159;BME280;75525;50.718;10.600;2024-01-30T02:47:54;97186.84;;;-1.67;91.46
85159;BME280;75525;50.718;10.600;2024-01-30T02:48:54;97188.84;;;-1.69;91.51
85159;BME280;75525;50.718;10.600;2024-01-30T02:49:55;97176.53;;;-1.70;92.07
85159;BME280;75525;50.718;10.600;2024-01-30T02:50:55;97171.22;;;-1.70;92.84
85159;BME280;75525;50.718;10.600;2024-01-30T02:51:56;97179.19;;;-1.70;92.51
85159;BME280;75525;50.718;10.600;2024-01-30T02:52:57;97178.44;;;-1.63;92.05
85159;BME280;75525;50.718;10.600;2024-01-30T02:53:57;97180.25;;;-1.63;92.00
85159;BME280;75525;50.718;10.600;2024-01-30T02:54:58;97186.56;;;-1.64;92.35
85159;BME280;75525;50.718;10.600;2024-01-30T02:55:58;97182.91;;;-1.63;91.87
85159;BME280;75525;50.718;10.600;2024-01-30T02:56:59;97164.94;;;-1.69;91.65
85159;BME280;75525;50.718;10.600;2024-01-30T02:57:59;97178.44;;;-1.63;91.38
85159;BME280;75525;50.718;10.600;2024-01-30T02:58:59;97179.59;;;-1.65;91.53
85159;BME280;75525;50.718;10.600;2024-01-30T03:00:00;97173.22;;;-1.72;91.61
85159;BME280;75525;50.718;10.600;2024-01-30T03:01:01;97172.91;;;-1.69;91.17
85159;BME280;75525;50.718;10.600;2024-01-30T03:02:01;97176.09;;;-1.66;91.77
85159;BME280;75525;50.718;10.600;2024-01-30T03:03:02;97184.19;;;-1.67;91.88
85159;BME280;75525;50.718;10.600;2024-01-30T03:04:02;97183.53;;;-1.69;92.35
85159;BME280;75525;50.718;10.600;2024-01-30T03:05:04;97176.53;;;-1.70;91.98
85159;BME280;75525;50.718;10.600;2024-01-30T03:06:05;97178.53;;;-1.72;92.53
85159;BME280;75525;50.718;10.600;2024-01-30T03:07:05;97175.16;;;-1.75;91.92
85159;BME280;75525;50.718;10.600;2024-01-30T03:08:05;97167.47;;;-1.86;92.22
85159;BME280;75525;50.718;10.600;2024-01-30T03:09:06;97180.81;;;-1.78;91.57
85159;BME280;75525;50.718;10.600;2024-01-30T03:10:07;97178.81;;;-1.76;91.96
85159;BME280;75525;50.718;10.600;2024-01-30T03:11:07;97162.16;;;-1.86;91.85
85159;BME280;75525;50.718;10.600;2024-01-30T03:12:08;97172.31;;;-1.81;92.74
85159;BME280;75525;50.718;10.600;2024-01-30T03:13:08;97177.63;;;-1.81;92.42
85159;BME280;75525;50.718;10.600;2024-01-30T03:14:09;97174.13;;;-1.82;92.53
85159;BME280;75525;50.718;10.600;2024-01-30T03:15:11;97170.66;;;-1.82;93.05
85159;BME280;75525;50.718;10.600;2024-01-30T03:16:11;97159.25;;;-1.92;92.69
85159;BME280;75525;50.718;10.600;2024-01-30T03:17:12;97168.28;;;-1.85;92.38
85159;BME280;75525;50.718;10.600;2024-01-30T03:18:12;97176.91;;;-1.83;92.66
85159;BME280;75525;50.718;10.600;2024-01-30T03:19:13;97170.78;;;-1.84;92.58
85159;BME280;75525;50.718;10.600;2024-01-30T03:20:13;97165.47;;;-1.84;93.22
85159;BME280;75525;50.718;10.600;2024-01-30T03:21:14;97168.97;;;-1.83;93.39
85159;BME280;75525;50.718;10.600;2024-01-30T03:22:14;97156.44;;;-1.91;93.28
85159;BME280;75525;50.718;10.600;2024-01-30T03:23:15;97170.78;;;-1.84;93.09
85159;BME280;75525;50.718;10.600;2024-01-30T03:24:15;97165.78;;;-1.87;92.39
85159;BME280;75525;50.718;10.600;2024-01-30T03:25:15;97171.63;;;-1.83;92.08
85159;BME280;75525;50.718;10.600;2024-01-30T03:26:16;97168.13;;;-1.84;92.46
85159;BME280;75525;50.718;10.600;2024-01-30T03:27:16;97165.19;;;-1.81;92.48
85159;BME280;75525;50.718;10.600;2024-01-30T03:28:17;97166.63;;;-1.86;92.25
85159;BME280;75525;50.718;10.600;2024-01-30T03:29:17;97146.81;;;-1.92;92.77
85159;BME280;75525;50.718;10.600;2024-01-30T03:30:17;97167.13;;;-1.83;92.77
85159;BME280;75525;50.718;10.600;2024-01-30T03:31:18;97156.69;;;-1.84;92.69
85159;BME280;75525;50.718;10.600;2024-01-30T03:32:18;97148.34;;;-1.89;92.66
85159;BME280;75525;50.718;10.600;2024-01-30T03:33:19;97141.88;;;-1.87;92.48
85159;BME280;75525;50.718;10.600;2024-01-30T03:34:19;97133.56;;;-1.92;92.32
85159;BME280;75525;50.718;10.600;2024-01-30T03:35:20;97150.91;;;-1.80;92.48
85159;BME280;75525;50.718;10.600;2024-01-30T03:36:20;97158.03;;;-1.80;92.76
85159;BME280;75525;50.718;10.600;2024-01-30T03:37:20;97149.03;;;-1.87;91.86
85159;BME280;75525;50.718;10.600;2024-01-30T03:38:21;97147.34;;;-1.88;92.41
85159;BME280;75525;50.718;10.600;2024-01-30T03:39:21;97149.56;;;-1.84;92.46
85159;BME280;75525;50.718;10.600;2024-01-30T03:40:22;97159.88;;;-1.81;92.56
85159;BME280;75525;50.718;10.600;2024-01-30T03:41:22;97158.88;;;-1.80;92.50
85159;BME280;75525;50.718;10.600;2024-01-30T03:42:23;97155.84;;;-1.85;92.89
85159;BME280;75525;50.718;10.600;2024-01-30T03:43:23;97165.00;;;-1.79;92.74
85159;BME280;75525;50.718;10.600;2024-01-30T03:44:23;97156.75;;;-1.76;92.62
85159;BME280;75525;50.718;10.600;2024-01-30T03:45:24;97149.25;;;-1.81;92.17
85159;BME280;75525;50.718;10.600;2024-01-30T03:46:24;97157.59;;;-1.76;91.94
85159;BME280;75525;50.718;10.600;2024-01-30T03:47:25;97157.00;;;-1.69;92.48
85159;BME280;75525;50.718;10.600;2024-01-30T03:48:25;97161.59;;;-1.71;91.98
85159;BME280;75525;50.718;10.600;2024-01-30T03:49:26;97162.59;;;-1.72;91.92
85159;BME280;75525;50.718;10.600;2024-01-30T03:50:26;97156.59;;;-1.75;92.29
85159;BME280;75525;50.718;10.600;2024-01-30T03:51:28;97160.09;;;-1.74;92.58
85159;BME280;75525;50.718;10.600;2024-01-30T03:52:28;97159.25;;;-1.75;92.25
85159;BME280;75525;50.718;10.600;2024-01-30T03:53:29;97162.59;;;-1.72;91.87
85159;BME280;75525;50.718;10.600;2024-01-30T03:54:30;97161.75;;;-1.73;91.99
85159;BME280;75525;50.718;10.600;2024-01-30T03:55:30;97148.97;;;-1.78;91.87
85159;BME280;75525;50.718;10.600;2024-01-30T03:56:30;97167.91;;;-1.72;92.48
85159;BME280;75525;50.718;10.600;2024-01-30T03:57:31;97160.59;;;-1.70;92.77
85159;BME280;75525;50.718;10.600;2024-01-30T03:58:31;97157.28;;;-1.72;92.93
85159;BME280;75525;50.718;10.600;2024-01-30T03:59:32;97154.81;;;-1.74;92.88
85159;BME280;75525;50.718;10.600;2024-01-30T04:00:32;97159.41;;;-1.76;92.46
85159;BME280;75525;50.718;10.600;2024-01-30T04:01:32;97154.19;;;-1.86;92.67
85159;BME280;75525;50.718;10.600;2024-01-30T04:02:33;97153.50;;;-1.88;92.03
85159;BME280;75525;50.718;10.600;2024-01-30T04:03:34;97133.94;;;-1.87;91.98
85159;BME280;75525;50.718;10.600;2024-01-30T04:04:34;97160.53;;;-1.79;92.54
85159;BME280;75525;50.718;10.600;2024-01-30T04:05:34;97163.19;;;-1.79;92.34
85159;BME280;75525;50.718;10.600;2024-01-30T04:06:35;97162.34;;;-1.79;92.61
85159;BME280;75525;50.718;10.600;2024-01-30T04:07:35;97151.84;;;-1.89;91.89
85159;BME280;75525;50.718;10.600;2024-01-30T04:08:36;97161.69;;;-1.81;92.23
85159;BME280;75525;50.718;10.600;2024-01-30T04:09:38;97156.69;;;-1.84;92.36
85159;BME280;75525;50.718;10.600;2024-01-30T04:10:38;97162.69;;;-1.82;92.36
85159;BME280;75525;50.718;10.600;2024-01-30T04:11:39;97162.53;;;-1.81;92.78
85159;BME280;75525;50.718;10.600;2024-01-30T04:12:40;97168.50;;;-1.79;92.53
85159;BME280;75525;50.718;10.600;2024-01-30T04:13:40;97161.00;;;-1.83;92.22
85159;BME280;75525;50.718;10.600;2024-01-30T04:14:43;97165.47;;;-1.84;92.47
85159;BME280;75525;50.718;10.600;2024-01-30T04:15:44;97165.72;;;-1.77;92.22
85159;BME280;75525;50.718;10.600;2024-01-30T04:16:45;97162.53;;;-1.81;92.25
85159;BME280;75525;50.718;10.600;2024-01-30T04:17:45;97153.66;;;-1.89;92.14
85159;BME280;75525;50.718;10.600;2024-01-30T04:18:45;97165.19;;;-1.81;92.46
85159;BME280;75525;50.718;10.600;2024-01-30T04:19:46;97164.47;;;-1.83;92.02
85159;BME280;75525;50.718;10.600;2024-01-30T04:20:46;97164.66;;;-1.84;92.22
85159;BME280;75525;50.718;10.600;2024-01-30T04:21:47;97170.13;;;-1.86;92.42
85159;BME280;75525;50.718;10.600;2024-01-30T04:22:47;97167.13;;;-1.83;92.74
85159;BME280;75525;50.718;10.600;2024-01-30T04:23:48;97151.59;;;-1.95;92.65
85159;BME280;75525;50.718;10.600;2024-01-30T04:24:48;97167.47;;;-1.86;92.56
85159;BME280;75525;50.718;10.600;2024-01-30T04:25:49;97165.28;;;-1.90;92.22
85159;BME280;75525;50.718;10.600;2024-01-30T04:26:49;97155.78;;;-1.93;92.26
85159;BME280;75525;50.718;10.600;2024-01-30T04:27:49;97162.16;;;-1.86;92.70
85159;BME280;75525;50.718;10.600;2024-01-30T04:28:50;97165.78;;;-1.87;92.02
85159;BME280;75525;50.718;10.600;2024-01-30T04:29:50;97172.06;;;-1.88;92.20
85159;BME280;75525;50.718;10.600;2024-01-30T04:30:51;97166.41;;;-1.93;91.79
85159;BME280;75525;50.718;10.600;2024-01-30T04:31:51;97174.88;;;-1.89;91.93
85159;BME280;75525;50.718;10.600;2024-01-30T04:32:52;97176.72;;;-1.90;91.76
85159;BME280;75525;50.718;10.600;2024-01-30T04:33:52;97175.88;;;-1.90;92.05
85159;BME280;75525;50.718;10.600;2024-01-30T04:34:52;97166.84;;;-1.97;91.88
85159;BME280;75525;50.718;10.600;2024-01-30T04:35:53;97174.72;;;-1.88;92.41
85159;BME280;75525;50.718;10.600;2024-01-30T04:36:53;97180.19;;;-1.89;92.33
85159;BME280;75525;50.718;10.600;2024-01-30T04:37:54;97162.38;;;-1.97;92.46
85159;BME280;75525;50.718;10.600;2024-01-30T04:38:54;97170.25;;;-1.87;92.09
85159;BME280;75525;50.718;10.600;2024-01-30T04:39:55;97175.44;;;-1.86;92.42
85159;BME280;75525;50.718;10.600;2024-01-30T04:40:55;97179.19;;;-1.88;91.99
85159;BME280;75525;50.718;10.600;2024-01-30T04:41:56;97173.59;;;-1.85;92.20
85159;BME280;75525;50.718;10.600;2024-01-30T04:42:56;97174.81;;;-1.80;92.53
85159;BME280;75525;50.718;10.600;2024-01-30T04:43:56;97173.31;;;-1.82;92.92
85159;BME280;75525;50.718;10.600;2024-01-30T04:44:57;97180.28;;;-1.81;92.82
85159;BME280;75525;50.718;10.600;2024-01-30T04:45:57;97160.25;;;-1.93;92.66
85159;BME280;75525;50.718;10.600;2024-01-30T04:46:58;97183.06;;;-1.83;92.67
85159;BME280;75525;50.718;10.600;2024-01-30T04:48:01;97175.25;;;-1.84;92.05
85159;BME280;75525;50.718;10.600;2024-01-30T04:49:01;97185.03;;;-1.85;92.02
85159;BME280;75525;50.718;10.600;2024-01-30T04:50:03;97168.06;;;-1.92;92.42
85159;BME280;75525;50.718;10.600;2024-01-30T04:51:05;97174.06;;;-1.90;92.18
85159;BME280;75525;50.718;10.600;2024-01-30T04:52:08;97166.03;;;-1.98;91.58
85159;BME280;75525;50.718;10.600;2024-01-30T04:53:09;97174.88;;;-1.89;91.75
85159;BME280;75525;50.718;10.600;2024-01-30T04:54:09;97165.84;;;-1.96;91.82
85159;BME280;75525;50.718;10.600;2024-01-30T04:55:09;97161.38;;;-1.96;91.64
85159;BME280;75525;50.718;10.600;2024-01-30T04:56:10;97162.84;;;-2.02;91.70
85159;BME280;75525;50.718;10.600;2024-01-30T04:57:10;97169.63;;;-1.99;91.99
85159;BME280;75525;50.718;10.600;2024-01-30T04:58:12;97177.31;;;-1.96;91.94
85159;BME280;75525;50.718;10.600;2024-01-30T04:59:12;97173.00;;;-1.97;91.93
85159;BME280;75525;50.718;10.600;2024-01-30T05:00:13;97170.34;;;-1.97;92.35
85159;BME280;75525;50.718;10.600;2024-01-30T05:01:17;97178.44;;;-1.99;92.45
85159;BME280;75525;50.718;10.600;2024-01-30T05:02:17;97176.22;;;-2.03;92.83
85159;BME280;75525;50.718;10.600;2024-01-30T05:03:19;97182.91;;;-1.99;93.13
85159;BME280;75525;50.718;10.600;2024-01-30T05:04:20;97176.75;;;-2.00;92.59
85159;BME280;75525;50.718;10.600;2024-01-30T05:05:20;97162.59;;;-2.08;92.26
85159;BME280;75525;50.718;10.600;2024-01-30T05:06:25;97182.06;;;-2.00;92.26
85159;BME280;75525;50.718;10.600;2024-01-30T05:07:26;97172.22;;;-2.07;92.52
85159;BME280;75525;50.718;10.600;2024-01-30T05:08:26;97186.56;;;-2.00;91.85
85159;BME280;75525;50.718;10.600;2024-01-30T05:09:27;97183.91;;;-2.00;91.70
85159;BME280;75525;50.718;10.600;2024-01-30T05:10:27;97176.94;;;-2.01;91.88
85159;BME280;75525;50.718;10.600;2024-01-30T05:11:28;97183.34;;;-2.04;92.02
85159;BME280;75525;50.718;10.600;2024-01-30T05:12:29;97164.03;;;-2.14;91.73
85159;BME280;75525;50.718;10.600;2024-01-30T05:13:30;97176.22;;;-2.03;91.90
85159;BME280;75525;50.718;10.600;2024-01-30T05:14:31;97177.91;;;-2.02;91.44
85159;BME280;75525;50.718;10.600;2024-01-30T05:15:31;97183.22;;;-2.02;91.53
85159;BME280;75525;50.718;10.600;2024-01-30T05:16:32;97182.38;;;-2.03;91.92
85159;BME280;75525;50.718;10.600;2024-01-30T05:17:32;97174.56;;;-2.04;92.15